Time;durP1;ratioP1;P1;durP2;ratioP2;P2;SDS_P1;SDS_P2;PMS_P1;PMS_P2;Temp;Humidity;BMP_temperature;BMP_pressure;BME280_temperature;BME280_humidity;BME280_pressure;Samples;Min_cycle;Max_cycle;Signal;HPM_P1;HPM_P2
2024/01/06 00:00:28;;;;;;;49.55;31.42;;;;;;;-146.58;100.00;69501.63;5029561;28;20041;-56
2024/01/06 00:02:53;;;;;;;47.50;27.92;;;;;;;-146.58;100.00;69501.63;5031498;28;20461;-56
2024/01/06 00:05:18;;;;;;;52.70;33.67;;;;;;;-146.58;100.00;69501.63;5029317;28;20037;-56
2024/01/06 00:07:44;;;;;;;44.58;29.60;;;;;;;-146.58;100.00;69501.63;5030819;28;20032;-56
2024/01/06 00:10:09;;;;;;;50.20;30.10;;;;;;;-146.58;100.00;69501.63;5029854;28;20091;-56
2024/01/06 00:12:35;;;;;;;46.05;34.08;;;;;;;-146.58;100.00;69501.63;5030125;28;20025;-56
2024/01/06 00:15:00;;;;;;;45.03;27.23;;;;;;;-146.58;100.00;69501.63;5029583;28;20081;-56
2024/01/06 00:17:25;;;;;;;42.25;27.17;;;;;;;-146.58;100.00;69501.63;5030675;28;20021;-56
2024/01/06 00:19:51;;;;;;;37.80;26.55;;;;;;;-146.58;100.00;69501.63;5029165;28;20042;-56
2024/01/06 00:22:20;;;;;;;36.83;24.95;;;;;;;-146.58;100.00;69501.63;5029431;28;20033;-56
2024/01/06 00:24:45;;;;;;;;;;;;;;;-146.58;100.00;69501.63;5028381;28;20507;-56
2024/01/06 00:27:10;;;;;;;39.63;25.50;;;;;;;-146.58;100.00;69501.63;5030354;28;20261;-56
2024/01/06 00:29:36;;;;;;;38.65;26.70;;;;;;;-146.58;100.00;69501.63;5029237;28;20040;-56
2024/01/06 00:32:01;;;;;;;36.63;26.88;;;;;;;-146.58;100.00;69501.63;5030306;28;20025;-56
2024/01/06 00:34:26;;;;;;;44.38;32.00;;;;;;;-146.58;100.00;69501.63;5028271;28;20374;-56
2024/01/06 00:36:52;;;;;;;35.08;26.33;;;;;;;-146.58;100.00;69501.63;5030275;28;20037;-56
2024/01/06 00:39:20;;;;;;;37.85;28.77;;;;;;;-146.58;100.00;69501.63;5028693;28;20040;-56
2024/01/06 00:41:45;;;;;;;35.67;26.48;;;;;;;-146.58;100.00;69501.63;5029708;28;20037;-56
2024/01/06 00:44:10;;;;;;;43.35;30.33;;;;;;;-146.58;100.00;69501.63;5029245;28;20492;-56
2024/01/06 00:46:36;;;;;;;43.92;30.48;;;;;;;-146.58;100.00;69501.63;5030165;28;20033;-56
2024/01/06 00:49:01;;;;;;;43.72;29.25;;;;;;;-146.58;100.00;69501.63;5029098;28;20056;-58
2024/01/06 00:51:27;;;;;;;39.60;26.75;;;;;;;-146.58;100.00;69501.63;5030306;28;20511;-63
2024/01/06 00:53:53;;;;;;;48.35;31.73;;;;;;;-146.58;100.00;69501.63;5029285;28;20037;-62
2024/01/06 00:56:18;;;;;;;45.17;27.83;;;;;;;-146.58;100.00;69501.63;5030532;28;20617;-62
2024/01/06 00:58:44;;;;;;;37.00;24.73;;;;;;;-146.58;100.00;69501.63;5028643;28;20025;-62
2024/01/06 01:01:09;;;;;;;37.17;26.25;;;;;;;-146.58;100.00;69501.63;5030398;28;20033;-63
2024/01/06 01:03:34;;;;;;;39.45;25.70;;;;;;;-146.58;100.00;69501.63;5028878;28;20380;-62
2024/01/06 01:06:00;;;;;;;40.20;24.17;;;;;;;-146.58;100.00;69501.63;5033124;28;20029;-63
2024/01/06 01:08:25;;;;;;;33.30;19.15;;;;;;;-146.58;100.00;69501.63;5034424;28;20025;-62
2024/01/06 01:10:51;;;;;;;24.05;16.33;;;;;;;-146.58;100.00;69501.63;5032615;28;20530;-63
2024/01/06 01:13:16;;;;;;;22.65;18.40;;;;;;;-146.58;100.00;69501.63;5033996;28;20377;-62
2024/01/06 01:15:41;;;;;;;22.90;16.42;;;;;;;-146.58;100.00;69501.63;5032471;28;20045;-63
2024/01/06 01:18:07;;;;;;;23.15;17.10;;;;;;;-146.58;100.00;69501.63;5034448;28;20499;-62
2024/01/06 01:20:32;;;;;;;25.77;17.65;;;;;;;-146.58;100.00;69501.63;5032053;28;20500;-62
2024/01/06 01:22:58;;;;;;;27.17;17.85;;;;;;;-146.58;100.00;69501.63;5033873;28;20029;-63
2024/01/06 01:25:23;;;;;;;31.13;18.83;;;;;;;-146.58;100.00;69501.63;5032452;28;20049;-63
2024/01/06 01:27:48;;;;;;;30.27;21.02;;;;;;;-146.58;100.00;69501.63;5032736;28;20029;-62
2024/01/06 01:30:14;;;;;;;30.23;20.55;;;;;;;-146.58;100.00;69501.63;5032591;28;20500;-63
2024/01/06 01:32:39;;;;;;;28.35;19.52;;;;;;;-146.58;100.00;69501.63;5033289;28;20132;-63
2024/01/06 01:35:05;;;;;;;31.02;19.42;;;;;;;-146.58;100.00;69501.63;5032036;28;20152;-62
2024/01/06 01:37:31;;;;;;;27.70;19.98;;;;;;;-146.58;100.00;69501.63;5033564;28;20544;-63
2024/01/06 01:39:56;;;;;;;25.52;18.08;;;;;;;-146.58;100.00;69501.63;5032163;28;20065;-63
2024/01/06 01:42:22;;;;;;;27.85;19.38;;;;;;;-146.58;100.00;69501.63;5033159;28;20026;-63
2024/01/06 01:44:47;;;;;;;30.15;16.90;;;;;;;-146.58;100.00;69501.63;5064020;28;20038;-63
2024/01/06 01:47:18;;;;;;;26.25;18.52;;;;;;;-146.58;100.00;69501.63;5033699;28;20056;-63
2024/01/06 01:49:43;;;;;;;25.58;19.83;;;;;;;-146.58;100.00;69501.63;5031607;28;20075;-62
2024/01/06 01:52:09;;;;;;;26.83;20.30;;;;;;;-146.58;100.00;69501.63;5033511;28;20029;-63
2024/01/06 01:54:35;;;;;;;26.90;19.92;;;;;;;-146.58;100.00;69501.63;5031385;28;20099;-63
2024/01/06 01:57:01;;;;;;;30.05;22.45;;;;;;;-146.58;100.00;69501.63;5033348;28;20476;-63
2024/01/06 01:59:27;;;;;;;38.05;24.67;;;;;;;-146.58;100.00;69501.63;5031761;28;20038;-62
2024/01/06 02:01:52;;;;;;;37.80;23.50;;;;;;;-146.58;100.00;69501.63;5033343;28;20060;-62
2024/01/06 02:04:17;;;;;;;42.45;27.65;;;;;;;-146.58;100.00;69501.63;5063240;28;20397;-63
2024/01/06 02:06:43;;;;;;;46.17;28.80;;;;;;;-146.58;100.00;69501.63;5032947;28;20026;-62
2024/01/06 02:09:08;;;;;;;46.90;29.35;;;;;;;-146.58;100.00;69501.63;5031856;28;20034;-62
2024/01/06 02:11:34;;;;;;;47.95;30.92;;;;;;;-146.58;100.00;69501.63;5032635;28;20052;-62
2024/01/06 02:14:00;;;;;;;49.33;32.63;;;;;;;-146.58;100.00;69501.63;5031618;28;20033;-62
2024/01/06 02:16:25;;;;;;;49.05;31.15;;;;;;;-146.58;100.00;69501.63;5031844;28;20029;-62
2024/01/06 02:18:51;;;;;;;52.33;29.55;;;;;;;-146.58;100.00;69501.63;5031568;28;20500;-62
2024/01/06 02:21:17;;;;;;;51.45;30.67;;;;;;;-146.58;100.00;69501.63;5032706;28;20614;-63
2024/01/06 02:23:42;;;;;;;40.90;24.05;;;;;;;-146.58;100.00;69501.63;5031171;28;20033;-62
2024/01/06 02:26:09;;;;;;;40.60;24.50;;;;;;;-146.58;100.00;69501.63;5032449;28;20067;-63
2024/01/06 02:28:34;;;;;;;35.25;22.45;;;;;;;-146.58;100.00;69501.63;5031263;28;20485;-62
2024/01/06 02:30:59;;;;;;;34.05;20.48;;;;;;;-146.58;100.00;69501.63;5032626;28;20032;-63
2024/01/06 02:33:25;;;;;;;40.22;21.13;;;;;;;-146.58;100.00;69501.63;5032809;28;20025;-59
2024/01/06 02:35:50;;;;;;;43.97;26.42;;;;;;;-146.58;100.00;69501.63;5030998;28;20041;-63
2024/01/06 02:38:16;;;;;;;46.78;25.85;;;;;;;-146.58;100.00;69501.63;5032670;28;20030;-63
2024/01/06 02:40:42;;;;;;;50.65;25.20;;;;;;;-146.58;100.00;69501.63;5030757;28;20068;-62
2024/01/06 02:43:08;;;;;;;41.22;25.88;;;;;;;-146.58;100.00;69501.63;5032386;28;20488;-63
2024/01/06 02:45:33;;;;;;;41.65;24.38;;;;;;;-146.58;100.00;69501.63;5030685;28;20045;-63
2024/01/06 02:47:58;;;;;;;49.22;27.23;;;;;;;-146.58;100.00;69501.63;5032152;28;20420;-63
2024/01/06 02:50:24;;;;;;;54.60;27.17;;;;;;;-146.58;100.00;69501.63;5030830;28;20045;-63
2024/01/06 02:52:49;;;;;;;49.58;27.83;;;;;;;-146.58;100.00;69501.63;5032251;28;20048;-63
2024/01/06 02:55:15;;;;;;;54.35;31.00;;;;;;;-146.58;100.00;69501.63;5030461;28;20045;-63
2024/01/06 02:57:43;;;;;;;49.17;28.42;;;;;;;-146.58;100.00;69501.63;5032105;28;20037;-63
2024/01/06 03:00:08;;;;;;;50.33;24.57;;;;;;;-146.58;100.00;69501.63;5030519;28;20041;-63
2024/01/06 03:02:35;;;;;;;48.75;28.45;;;;;;;-146.58;100.00;69501.63;5032001;28;20486;-63
2024/01/06 03:05:01;;;;;;;45.08;25.88;;;;;;;-146.58;100.00;69501.63;5030620;28;20511;-63
2024/01/06 03:07:26;;;;;;;50.00;28.48;;;;;;;-146.58;100.00;69501.63;5031664;28;20025;-63
2024/01/06 03:09:52;;;;;;;50.70;30.70;;;;;;;-146.58;100.00;69501.63;5030224;28;20052;-63
2024/01/06 03:12:17;;;;;;;47.85;27.15;;;;;;;-146.58;100.00;69501.63;5031995;28;20025;-62
2024/01/06 03:14:42;;;;;;;52.80;28.70;;;;;;;-146.58;100.00;69501.63;5030315;28;20696;-60
2024/01/06 03:17:10;;;;;;;58.28;30.33;;;;;;;-146.58;100.00;69501.63;5031628;28;20028;-62
2024/01/06 03:19:36;;;;;;;54.42;28.50;;;;;;;-146.58;100.00;69501.63;5030287;28;20041;-62
2024/01/06 03:22:01;;;;;;;49.92;28.13;;;;;;;-146.58;100.00;69501.63;5031848;28;20021;-62
2024/01/06 03:24:27;;;;;;;57.75;29.27;;;;;;;-146.58;100.00;69501.63;5030230;28;20041;-62
2024/01/06 03:26:52;;;;;;;59.08;27.35;;;;;;;-146.58;100.00;69501.63;5031556;28;20531;-62
2024/01/06 03:29:18;;;;;;;59.70;26.83;;;;;;;-146.58;100.00;69501.63;5029540;28;20095;-62
2024/01/06 03:31:44;;;;;;;59.15;31.17;;;;;;;-146.58;100.00;69501.63;5031294;28;20026;-62
2024/01/06 03:34:11;;;;;;;54.67;28.95;;;;;;;-146.58;100.00;69501.63;5029769;28;20485;-62
2024/01/06 03:36:39;;;;;;;48.85;28.38;;;;;;;-146.58;100.00;69501.63;5031417;28;20032;-62
2024/01/06 03:39:05;;;;;;;52.17;26.92;;;;;;;-146.58;100.00;69501.63;5030290;28;20037;-62
2024/01/06 03:41:30;;;;;;;53.47;25.85;;;;;;;-146.58;100.00;69501.63;5031038;28;20361;-62
2024/01/06 03:43:56;;;;;;;45.25;26.33;;;;;;;-146.58;100.00;69501.63;5030038;28;20041;-62
2024/01/06 03:46:22;;;;;;;52.63;25.27;;;;;;;-146.58;100.00;69501.63;5031250;28;20026;-62
2024/01/06 03:48:47;;;;;;;51.33;28.65;;;;;;;-146.58;100.00;69501.63;5029498;28;20060;-62
2024/01/06 03:51:13;;;;;;;50.53;26.95;;;;;;;-146.58;100.00;69501.63;5031334;28;20021;-62
2024/01/06 03:53:40;;;;;;;55.53;30.33;;;;;;;-146.58;100.00;69501.63;5029635;28;20388;-62
2024/01/06 03:56:05;;;;;;;49.88;29.77;;;;;;;-146.58;100.00;69501.63;5030792;28;20482;-62
2024/01/06 03:58:31;;;;;;;55.75;30.13;;;;;;;-146.58;100.00;69501.63;5031118;28;20155;-62
2024/01/06 04:00:56;;;;;;;55.55;28.85;;;;;;;-146.58;100.00;69501.63;5029305;28;20038;-62
2024/01/06 04:03:21;;;;;;;45.40;26.92;;;;;;;-146.58;100.00;69501.63;5030871;28;20041;-62
2024/01/06 04:05:47;;;;;;;60.10;31.23;;;;;;;-146.58;100.00;69501.63;5029271;28;20030;-63
2024/01/06 04:08:12;;;;;;;63.28;30.85;;;;;;;-146.58;100.00;69501.63;5031012;28;20052;-62
2024/01/06 04:10:37;;;;;;;64.30;33.38;;;;;;;-146.58;100.00;69501.63;5029157;28;20041;-63
2024/01/06 04:13:03;;;;;;;57.50;33.92;;;;;;;-146.58;100.00;69501.63;5031108;28;20071;-62
2024/01/06 04:15:29;;;;;;;55.10;31.40;;;;;;;-146.58;100.00;69501.63;5029321;28;20497;-62
2024/01/06 04:17:54;;;;;;;56.67;30.63;;;;;;;-146.58;100.00;69501.63;5030704;28;20465;-62
2024/01/06 04:20:20;;;;;;;50.58;29.40;;;;;;;-146.58;100.00;69501.63;5029435;28;20053;-62
2024/01/06 04:22:45;;;;;;;56.53;34.90;;;;;;;-146.58;100.00;69501.63;5030819;28;20021;-63
2024/01/06 04:25:10;;;;;;;48.08;28.60;;;;;;;-146.58;100.00;69501.63;5029160;28;20412;-62
2024/01/06 04:27:36;;;;;;;57.47;31.42;;;;;;;-146.58;100.00;69501.63;5030660;28;20065;-62
2024/01/06 04:30:01;;;;;;;55.97;28.20;;;;;;;-146.58;100.00;69501.63;5029483;28;20044;-62
2024/01/06 04:32:27;;;;;;;61.30;32.78;;;;;;;-146.58;100.00;69501.63;5030174;28;20026;-62
2024/01/06 04:34:52;;;;;;;52.25;35.67;;;;;;;-146.58;100.00;69501.63;5029265;28;20042;-63
2024/01/06 04:37:18;;;;;;;56.97;31.08;;;;;;;-146.58;100.00;69501.63;5030795;28;20087;-62
2024/01/06 04:39:43;;;;;;;60.35;31.83;;;;;;;-146.58;100.00;69501.63;5029977;28;20046;-62
2024/01/06 04:42:09;;;;;;;52.30;30.75;;;;;;;-146.58;100.00;69501.63;5034863;28;20030;-62
2024/01/06 04:44:34;;;;;;;53.85;31.27;;;;;;;-146.58;100.00;69501.63;5033225;28;20041;-62
2024/01/06 04:47:00;;;;;;;62.55;36.75;;;;;;;-146.58;100.00;69501.63;5066396;28;20366;-62
2024/01/06 04:49:25;;;;;;;58.92;31.10;;;;;;;-146.58;100.00;69501.63;5033141;28;20045;-62
2024/01/06 04:51:50;;;;;;;65.57;33.47;;;;;;;-146.58;100.00;69501.63;5034914;28;20026;-63
2024/01/06 04:54:16;;;;;;;60.17;32.70;;;;;;;-146.58;100.00;69501.63;5032848;28;20045;-63
2024/01/06 04:56:41;;;;;;;51.83;31.88;;;;;;;-146.58;100.00;69501.63;5034001;28;20021;-62
2024/01/06 04:59:06;;;;;;;59.60;32.47;;;;;;;-146.58;100.00;69501.63;5033079;28;20044;-63
2024/01/06 05:01:32;;;;;;;53.72;30.17;;;;;;;-146.58;100.00;69501.63;5034187;28;20033;-63
2024/01/06 05:03:58;;;;;;;50.15;28.27;;;;;;;-146.58;100.00;69501.63;5033076;28;20038;-63
2024/01/06 05:06:24;;;;;;;47.92;28.98;;;;;;;-146.58;100.00;69501.63;5034576;28;20093;-62
2024/01/06 05:08:49;;;;;;;43.00;27.35;;;;;;;-146.58;100.00;69501.63;5032259;28;20544;-62
2024/01/06 05:11:15;;;;;;;49.58;28.25;;;;;;;-146.58;100.00;69501.63;5034629;28;20177;-62
2024/01/06 05:13:40;;;;;;;46.88;26.30;;;;;;;-146.58;100.00;69501.63;5032953;28;20072;-62
2024/01/06 05:16:07;;;;;;;45.67;28.85;;;;;;;-146.58;100.00;69501.63;5033834;28;20488;-62
2024/01/06 05:18:32;;;;;;;46.53;25.98;;;;;;;-146.58;100.00;69501.63;5032151;28;20037;-61
2024/01/06 05:20:58;;;;;;;46.80;28.25;;;;;;;-146.58;100.00;69501.63;5034427;28;20025;-62
2024/01/06 05:23:23;;;;;;;54.75;32.80;;;;;;;-146.58;100.00;69501.63;5033835;28;20037;-62
2024/01/06 05:25:48;;;;;;;47.70;29.90;;;;;;;-146.58;100.00;69501.63;5031972;28;20046;-62
2024/01/06 05:28:14;;;;;;;49.83;28.00;;;;;;;-146.58;100.00;69501.63;5033948;28;20498;-62
2024/01/06 05:30:39;;;;;;;52.35;31.13;;;;;;;-146.58;100.00;69501.63;5031997;28;20202;-62
2024/01/06 05:33:05;;;;;;;50.97;28.45;;;;;;;-146.58;100.00;69501.63;5033933;28;20026;-62
2024/01/06 05:35:30;;;;;;;50.13;29.40;;;;;;;-146.58;100.00;69501.63;5032097;28;20040;-62
2024/01/06 05:37:55;;;;;;;53.28;31.92;;;;;;;-146.58;100.00;69501.63;5033488;28;20033;-62
2024/01/06 05:40:21;;;;;;;51.10;27.52;;;;;;;-146.58;100.00;69501.63;5032378;28;20042;-62
2024/01/06 05:42:46;;;;;;;53.38;30.95;;;;;;;-146.58;100.00;69501.63;5033622;28;20017;-62
2024/01/06 05:45:15;;;;;;;48.38;30.30;;;;;;;-146.58;100.00;69501.63;5031881;28;20056;-62
2024/01/06 05:47:40;;;;;;;62.97;34.28;;;;;;;-146.58;100.00;69501.63;5033150;28;20057;-62
2024/01/06 05:50:09;;;;;;;54.25;33.08;;;;;;;-146.58;100.00;69501.63;5032097;28;20065;-62
2024/01/06 05:52:34;;;;;;;52.10;29.15;;;;;;;-146.58;100.00;69501.63;5032782;28;20519;-62
2024/01/06 05:55:00;;;;;;;56.63;34.17;;;;;;;-146.58;100.00;69501.63;5032064;28;20041;-62
2024/01/06 05:57:25;;;;;;;61.88;35.75;;;;;;;-146.58;100.00;69501.63;5033013;28;20028;-63
2024/01/06 05:59:50;;;;;;;60.88;35.25;;;;;;;-146.58;100.00;69501.63;5031921;28;20045;-63
2024/01/06 06:02:16;;;;;;;67.53;34.42;;;;;;;-146.58;100.00;69501.63;5033032;28;20021;-63
2024/01/06 06:04:41;;;;;;;63.25;37.15;;;;;;;-146.58;100.00;69501.63;5031712;28;20174;-63
2024/01/06 06:07:06;;;;;;;74.00;40.13;;;;;;;-146.58;100.00;69501.63;5033192;28;20025;-63
2024/01/06 06:09:34;;;;;;;63.45;39.53;;;;;;;-146.58;100.00;69501.63;5031221;28;20072;-63
2024/01/06 06:12:00;;;;;;;61.85;34.22;;;;;;;-146.58;100.00;69501.63;5033554;28;20024;-63
2024/01/06 06:14:25;;;;;;;66.47;34.45;;;;;;;-146.58;100.00;69501.63;5031689;28;20491;-62
2024/01/06 06:16:50;;;;;;;57.95;29.92;;;;;;;-146.58;100.00;69501.63;5032512;28;20029;-62
2024/01/06 06:19:17;;;;;;;64.53;36.10;;;;;;;-146.58;100.00;69501.63;5031512;28;20038;-62
2024/01/06 06:21:43;;;;;;;61.13;34.13;;;;;;;-146.58;100.00;69501.63;5033176;28;20388;-62
2024/01/06 06:24:08;;;;;;;65.63;34.97;;;;;;;-146.58;100.00;69501.63;5031141;28;20040;-62
2024/01/06 06:26:33;;;;;;;65.88;32.58;;;;;;;-146.58;100.00;69501.63;5032305;28;20022;-62
2024/01/06 06:28:59;;;;;;;62.40;32.90;;;;;;;-146.58;100.00;69501.63;5031486;28;20060;-62
2024/01/06 06:31:24;;;;;;;60.78;34.20;;;;;;;-146.58;100.00;69501.63;5032205;28;20021;-63
2024/01/06 06:33:50;;;;;;;65.22;33.30;;;;;;;-146.58;100.00;69501.63;5031084;28;20029;-61
2024/01/06 06:36:15;;;;;;;63.20;36.45;;;;;;;-146.58;100.00;69501.63;5032097;28;20033;-60
2024/01/06 06:38:40;;;;;;;60.42;32.38;;;;;;;-146.58;100.00;69501.63;5030231;28;20029;-60
2024/01/06 06:41:06;;;;;;;64.35;34.72;;;;;;;-146.58;100.00;69501.63;5031826;28;20025;-60
2024/01/06 06:43:32;;;;;;;64.80;33.33;;;;;;;-146.58;100.00;69501.63;5032196;28;20029;-60
2024/01/06 06:45:57;;;;;;;61.15;33.22;;;;;;;-146.58;100.00;69501.63;5013981;28;20030;-61
2024/01/06 06:48:22;;;;;;;58.25;33.85;;;;;;;-146.58;100.00;69501.63;5021808;28;20029;-58
2024/01/06 06:50:48;;;;;;;59.13;33.67;;;;;;;-146.58;100.00;69501.63;5030856;28;20455;-62
2024/01/06 06:53:13;;;;;;;60.08;32.20;;;;;;;-146.58;100.00;69501.63;5031360;28;20032;-62
2024/01/06 06:55:40;;;;;;;67.55;34.85;;;;;;;-146.58;100.00;69501.63;5030341;28;20042;-62
2024/01/06 06:58:06;;;;;;;75.97;41.53;;;;;;;-146.58;100.00;69501.63;5032251;28;20115;-62
2024/01/06 07:00:31;;;;;;;68.45;37.67;;;;;;;-146.58;100.00;69501.63;5030137;28;20453;-61
2024/01/06 07:02:57;;;;;;;75.85;37.25;;;;;;;-146.58;100.00;69501.63;5031605;28;20025;-62
2024/01/06 07:05:22;;;;;;;67.05;35.65;;;;;;;-146.58;100.00;69501.63;5030804;28;20037;-62
2024/01/06 07:07:48;;;;;;;70.53;38.60;;;;;;;-146.58;100.00;69501.63;5031388;28;20022;-62
2024/01/06 07:10:13;;;;;;;71.22;35.63;;;;;;;-146.58;100.00;69501.63;5030570;28;20700;-62
2024/01/06 07:12:39;;;;;;;66.97;36.45;;;;;;;-146.58;100.00;69501.63;5031924;28;20033;-62
2024/01/06 07:15:04;;;;;;;68.05;34.45;;;;;;;-146.58;100.00;69501.63;5029615;28;20168;-62
2024/01/06 07:17:30;;;;;;;72.22;37.83;;;;;;;-146.58;100.00;69501.63;5031669;28;20056;-62
2024/01/06 07:19:55;;;;;;;76.90;37.08;;;;;;;-146.58;100.00;69501.63;5030329;28;20041;-62
2024/01/06 07:22:20;;;;;;;83.95;40.88;;;;;;;-146.58;100.00;69501.63;5031442;28;20028;-62
2024/01/06 07:24:46;;;;;;;78.68;38.17;;;;;;;-146.58;100.00;69501.63;5030323;28;20451;-62
2024/01/06 07:27:11;;;;;;;77.15;38.47;;;;;;;-146.58;100.00;69501.63;5031264;28;20028;-62
2024/01/06 07:29:37;;;;;;;65.95;35.72;;;;;;;-146.58;100.00;69501.63;5029483;28;20099;-61
2024/01/06 07:32:03;;;;;;;67.65;37.00;;;;;;;-146.58;100.00;69501.63;5031555;28;20033;-60
2024/01/06 07:34:28;;;;;;;65.53;37.22;;;;;;;-146.58;100.00;69501.63;5029904;28;20034;-60
2024/01/06 07:36:54;;;;;;;74.10;33.45;;;;;;;-146.58;100.00;69501.63;5031134;28;20029;-60
2024/01/06 07:39:19;;;;;;;69.05;34.33;;;;;;;-146.58;100.00;69501.63;5030329;28;20509;-60
2024/01/06 07:41:46;;;;;;;78.05;38.47;;;;;;;-146.58;100.00;69501.63;5030515;28;20136;-60
2024/01/06 07:44:12;;;;;;;61.80;36.83;;;;;;;-146.58;100.00;69501.63;5029672;28;20068;-60
2024/01/06 07:46:40;;;;;;;67.57;32.70;;;;;;;-146.58;100.00;69501.63;5031023;28;20464;-60
2024/01/06 07:49:05;;;;;;;63.40;32.95;;;;;;;-146.58;100.00;69501.63;5029641;28;20109;-60
2024/01/06 07:51:31;;;;;;;64.22;31.30;;;;;;;-146.58;100.00;69501.63;5030516;28;20041;-60
2024/01/06 07:53:58;;;;;;;56.63;30.63;;;;;;;-146.58;100.00;69501.63;5029852;28;20091;-60
2024/01/06 07:56:23;;;;;;;70.95;34.17;;;;;;;-146.58;100.00;69501.63;5031055;28;20481;-60
2024/01/06 07:58:48;;;;;;;64.35;30.98;;;;;;;-146.58;100.00;69501.63;5029448;28;20025;-60
2024/01/06 08:01:14;;;;;;;61.63;32.72;;;;;;;-146.58;100.00;69501.63;5031268;28;20033;-60
2024/01/06 08:03:39;;;;;;;56.80;30.98;;;;;;;-146.58;100.00;69501.63;5029068;28;20029;-60
2024/01/06 08:06:06;;;;;;;49.30;29.25;;;;;;;-146.58;100.00;69501.63;5030417;28;20044;-61
2024/01/06 08:08:31;;;;;;;59.78;33.72;;;;;;;-146.58;100.00;69501.63;5029390;28;20033;-61
2024/01/06 08:10:56;;;;;;;60.28;32.75;;;;;;;-146.58;100.00;69501.63;5028781;28;20041;-61
2024/01/06 08:13:22;;;;;;;62.03;30.65;;;;;;;-146.58;100.00;69501.63;5030657;28;20033;-60
2024/01/06 08:15:48;;;;;;;60.80;31.95;;;;;;;-146.58;100.00;69501.63;5028871;28;20045;-59
2024/01/06 08:18:13;;;;;;;53.05;31.20;;;;;;;-146.58;100.00;69501.63;5030139;28;20087;-59
2024/01/06 08:20:38;;;;;;;50.80;31.20;;;;;;;-146.58;100.00;69501.63;5028569;28;20041;-58
2024/01/06 08:23:04;;;;;;;46.25;29.88;;;;;;;-146.58;100.00;69501.63;5030398;28;20029;-58
2024/01/06 08:25:29;;;;;;;68.45;32.95;;;;;;;-146.58;100.00;69501.63;5028513;28;20436;-59
2024/01/06 08:27:55;;;;;;;55.47;34.58;;;;;;;-146.58;100.00;69501.63;5030925;28;20048;-58
2024/01/06 08:30:20;;;;;;;54.55;29.13;;;;;;;-146.58;100.00;69501.63;5029167;28;20038;-59
2024/01/06 08:32:45;;;;;;;55.75;32.15;;;;;;;-146.58;100.00;69501.63;5030122;28;20025;-59
2024/01/06 08:35:11;;;;;;;53.88;33.25;;;;;;;-146.58;100.00;69501.63;5029289;28;20045;-58
2024/01/06 08:37:36;;;;;;;51.20;32.60;;;;;;;-146.58;100.00;69501.63;5030264;28;20072;-58
2024/01/06 08:40:03;;;;;;;45.03;26.77;;;;;;;-146.58;100.00;69501.63;5029235;28;20408;-58
2024/01/06 08:42:29;;;;;;;59.83;31.98;;;;;;;-146.58;100.00;69501.63;5030564;28;20415;-58
2024/01/06 08:44:54;;;;;;;61.38;32.08;;;;;;;-146.58;100.00;69501.63;5028950;28;20091;-58
2024/01/06 08:47:19;;;;;;;49.92;28.65;;;;;;;-146.58;100.00;69501.63;5030373;28;20127;-58
2024/01/06 08:49:45;;;;;;;60.38;32.25;;;;;;;-146.58;100.00;69501.63;5028976;28;20056;-58
2024/01/06 08:52:10;;;;;;;57.60;29.83;;;;;;;-146.58;100.00;69501.63;5029488;28;20385;-58
2024/01/06 08:54:35;;;;;;;46.30;25.52;;;;;;;-146.58;100.00;69501.63;5028679;28;20049;-58
2024/01/06 08:57:01;;;;;;;59.15;29.83;;;;;;;-146.58;100.00;69501.63;5028285;28;20025;-58
2024/01/06 08:59:26;;;;;;;47.60;25.85;;;;;;;-146.58;100.00;69501.63;5028173;28;20497;-58
2024/01/06 09:01:52;;;;;;;47.80;28.25;;;;;;;-146.58;100.00;69501.63;5030714;28;20029;-59
2024/01/06 09:04:18;;;;;;;52.83;30.63;;;;;;;-146.58;100.00;69501.63;5027316;28;20144;-58
2024/01/06 09:06:43;;;;;;;49.72;26.65;;;;;;;-146.58;100.00;69501.63;5029424;28;20024;-58
2024/01/06 09:09:09;;;;;;;52.67;25.67;;;;;;;-146.58;100.00;69501.63;5028942;28;20030;-58
2024/01/06 09:11:35;;;;;;;40.65;23.75;;;;;;;-146.58;100.00;69501.63;5029785;28;20072;-58
2024/01/06 09:14:01;;;;;;;40.38;24.35;;;;;;;-146.58;100.00;69501.63;5028348;28;20176;-58
2024/01/06 09:16:26;;;;;;;45.00;26.77;;;;;;;-146.58;100.00;69501.63;5030072;28;20032;-58
2024/01/06 09:18:52;;;;;;;43.08;25.67;;;;;;;-146.58;100.00;69501.63;5027645;28;20034;-59
2024/01/06 09:21:17;;;;;;;47.03;26.27;;;;;;;-146.58;100.00;69501.63;5029816;28;20076;-59
2024/01/06 09:23:43;;;;;;;44.30;25.75;;;;;;;-146.58;100.00;69501.63;5027781;28;20025;-58
2024/01/06 09:26:09;;;;;;;48.60;27.23;;;;;;;-146.58;100.00;69501.63;5028504;28;20032;-58
2024/01/06 09:28:34;;;;;;;51.55;29.00;;;;;;;-146.58;100.00;69501.63;5029671;28;20055;-55
2024/01/06 09:30:59;;;;;;;41.22;27.40;;;;;;;-146.58;100.00;69501.63;5032453;28;20088;-62
2024/01/06 09:33:25;;;;;;;56.03;28.63;;;;;;;-146.58;100.00;69501.63;5032178;28;20115;-58
2024/01/06 09:35:50;;;;;;;46.30;27.13;;;;;;;-146.58;100.00;69501.63;5029675;28;20107;-58
2024/01/06 09:38:17;;;;;;;48.20;28.60;;;;;;;-146.58;100.00;69501.63;5032085;28;20036;-59
2024/01/06 09:40:46;;;;;;;49.80;27.58;;;;;;;-146.58;100.00;69501.63;5031950;28;20128;-58
2024/01/06 09:43:13;;;;;;;46.58;26.83;;;;;;;-146.58;100.00;69501.63;5032727;28;20073;-58
2024/01/06 09:45:41;;;;;;;51.50;33.05;;;;;;;-146.58;100.00;69501.63;5031321;28;20060;-58
2024/01/06 09:48:14;;;;;;;47.58;29.15;;;;;;;-146.58;100.00;69501.63;5033421;28;20021;-58
2024/01/06 09:50:41;;;;;;;47.35;28.10;;;;;;;-146.58;100.00;69501.63;5031633;28;20065;-59
2024/01/06 09:53:10;;;;;;;50.65;28.50;;;;;;;-146.58;100.00;69501.63;5033753;28;20078;-59
2024/01/06 09:55:36;;;;;;;52.58;28.88;;;;;;;-146.58;100.00;69501.63;5031738;28;20521;-58
2024/01/06 09:58:02;;;;;;;41.28;25.88;;;;;;;-146.58;100.00;69501.63;5033054;28;20026;-58
2024/01/06 10:00:28;;;;;;;43.25;26.23;;;;;;;-146.58;100.00;69501.63;5031858;28;20037;-59
2024/01/06 10:02:54;;;;;;;46.35;26.95;;;;;;;-146.58;100.00;69501.63;5033268;28;20021;-58
2024/01/06 10:05:20;;;;;;;44.50;24.67;;;;;;;-146.58;100.00;69501.63;5031668;28;20480;-58
2024/01/06 10:07:46;;;;;;;40.95;26.63;;;;;;;-146.58;100.00;69501.63;5032918;28;20057;-59
2024/01/06 10:10:12;;;;;;;48.15;26.90;;;;;;;-146.58;100.00;69501.63;5031844;28;20520;-59
2024/01/06 10:12:41;;;;;;;41.47;26.25;;;;;;;-146.58;100.00;69501.63;5031548;28;20083;-62
2024/01/06 10:15:11;;;;;;;46.72;27.77;;;;;;;-146.58;100.00;69501.63;5031611;28;20060;-58
2024/01/06 10:17:38;;;;;;;47.20;27.15;;;;;;;-146.58;100.00;69501.63;5033006;28;20049;-58
2024/01/06 10:20:12;;;;;;;50.70;26.73;;;;;;;-146.58;100.00;69501.63;5031319;28;20408;-58
2024/01/06 10:22:41;;;;;;;50.40;28.20;;;;;;;-146.58;100.00;69501.63;5032756;28;20021;-59
2024/01/06 10:25:08;;;;;;;45.58;28.83;;;;;;;-146.58;100.00;69501.63;5031142;28;20037;-58
2024/01/06 10:27:35;;;;;;;46.90;27.77;;;;;;;-146.58;100.00;69501.63;5032068;28;20100;-58
2024/01/06 10:30:00;;;;;;;52.03;30.05;;;;;;;-146.58;100.00;69501.63;5027108;28;20508;-58
2024/01/06 10:32:28;;;;;;;47.47;28.35;;;;;;;-146.58;100.00;69501.63;5032319;28;20120;-59
2024/01/06 10:34:55;;;;;;;51.47;29.10;;;;;;;-146.58;100.00;69501.63;5030443;28;20041;-58
2024/01/06 10:37:20;;;;;;;44.45;28.35;;;;;;;-146.58;100.00;69501.63;5030961;28;20488;-58
2024/01/06 10:39:45;;;;;;;49.40;28.65;;;;;;;-146.58;100.00;69501.63;5030645;28;20077;-58
2024/01/06 10:42:13;;;;;;;49.42;25.67;;;;;;;-146.58;100.00;69501.63;5031266;28;20060;-58
2024/01/06 10:44:39;;;;;;;48.38;28.08;;;;;;;-146.58;100.00;69501.63;5029592;28;20043;-58
2024/01/06 10:47:06;;;;;;;50.45;30.75;;;;;;;-146.58;100.00;69501.63;5031313;28;20030;-58